sensor_id;sensor_type;location;lat;lon;timestamp;P1;durP1;ratioP1;P2;durP2;ratioP2
70908;SDS011;58554;52.006;5.926;2023-04-15T00:02:03;10.18;;;6.45;;
70908;SDS011;58554;52.006;5.926;2023-04-15T00:04:40;12.40;;;6.78;;
70908;SDS011;58554;52.006;5.926;2023-04-15T00:07:06;13.15;;;6.70;;
70908;SDS011;58554;52.006;5.926;2023-04-15T00:09:35;12.77;;;6.87;;
70908;SDS011;58554;52.006;5.926;2023-04-15T00:12:02;11.48;;;7.40;;
70908;SDS011;58554;52.006;5.926;2023-04-15T00:14:29;10.90;;;6.53;;
70908;SDS011;58554;52.006;5.926;2023-04-15T00:16:56;11.98;;;6.93;;
70908;SDS011;58554;52.006;5.926;2023-04-15T00:19:22;10.73;;;6.90;;
70908;SDS011;58554;52.006;5.926;2023-04-15T00:21:49;10.50;;;6.93;;
70908;SDS011;58554;52.006;5.926;2023-04-15T00:24:15;11.82;;;7.05;;
70908;SDS011;58554;52.006;5.926;2023-04-15T00:26:44;12.80;;;6.50;;
70908;SDS011;58554;52.006;5.926;2023-04-15T00:29:11;13.05;;;6.82;;
70908;SDS011;58554;52.006;5.926;2023-04-15T00:31:38;14.05;;;7.50;;
70908;SDS011;58554;52.006;5.926;2023-04-15T00:34:05;14.03;;;6.73;;
70908;SDS011;58554;52.006;5.926;2023-04-15T00:36:31;11.30;;;6.97;;
70908;SDS011;58554;52.006;5.926;2023-04-15T00:38:58;11.50;;;6.97;;
70908;SDS011;58554;52.006;5.926;2023-04-15T00:41:24;11.85;;;6.57;;
70908;SDS011;58554;52.006;5.926;2023-04-15T00:43:54;10.73;;;6.27;;
70908;SDS011;58554;52.006;5.926;2023-04-15T00:46:20;9.90;;;6.40;;
70908;SDS011;58554;52.006;5.926;2023-04-15T00:48:48;13.13;;;7.07;;
70908;SDS011;58554;52.006;5.926;2023-04-15T00:51:16;10.70;;;6.27;;
70908;SDS011;58554;52.006;5.926;2023-04-15T00:53:42;10.40;;;6.72;;
70908;SDS011;58554;52.006;5.926;2023-04-15T00:56:09;11.03;;;6.27;;
70908;SDS011;58554;52.006;5.926;2023-04-15T00:58:35;13.87;;;6.63;;
70908;SDS011;58554;52.006;5.926;2023-04-15T01:01:04;11.35;;;6.45;;
70908;SDS011;58554;52.006;5.926;2023-04-15T01:03:31;10.80;;;6.20;;
70908;SDS011;58554;52.006;5.926;2023-04-15T01:05:58;11.85;;;6.63;;
70908;SDS011;58554;52.006;5.926;2023-04-15T01:08:25;11.30;;;7.00;;
70908;SDS011;58554;52.006;5.926;2023-04-15T01:10:53;10.82;;;6.57;;
70908;SDS011;58554;52.006;5.926;2023-04-15T01:13:21;11.77;;;6.70;;
70908;SDS011;58554;52.006;5.926;2023-04-15T01:15:49;10.60;;;6.37;;
70908;SDS011;58554;52.006;5.926;2023-04-15T01:18:18;10.60;;;6.50;;
70908;SDS011;58554;52.006;5.926;2023-04-15T01:20:46;10.05;;;6.53;;
70908;SDS011;58554;52.006;5.926;2023-04-15T01:23:12;10.07;;;6.33;;
70908;SDS011;58554;52.006;5.926;2023-04-15T01:25:42;11.27;;;6.55;;
70908;SDS011;58554;52.006;5.926;2023-04-15T01:28:10;10.30;;;6.88;;
70908;SDS011;58554;52.006;5.926;2023-04-15T01:30:36;11.03;;;7.00;;
70908;SDS011;58554;52.006;5.926;2023-04-15T01:33:03;12.00;;;6.90;;
70908;SDS011;58554;52.006;5.926;2023-04-15T01:35:29;11.27;;;6.90;;
70908;SDS011;58554;52.006;5.926;2023-04-15T01:37:56;10.43;;;6.43;;
70908;SDS011;58554;52.006;5.926;2023-04-15T01:40:30;11.20;;;6.40;;
70908;SDS011;58554;52.006;5.926;2023-04-15T01:42:59;11.10;;;6.55;;
70908;SDS011;58554;52.006;5.926;2023-04-15T01:45:26;10.73;;;6.67;;
70908;SDS011;58554;52.006;5.926;2023-04-15T01:47:52;9.23;;;6.33;;
70908;SDS011;58554;52.006;5.926;2023-04-15T01:50:19;10.57;;;6.78;;
70908;SDS011;58554;52.006;5.926;2023-04-15T01:52:46;12.17;;;6.67;;
70908;SDS011;58554;52.006;5.926;2023-04-15T01:55:13;10.25;;;6.80;;
70908;SDS011;58554;52.006;5.926;2023-04-15T01:57:39;10.60;;;7.13;;
70908;SDS011;58554;52.006;5.926;2023-04-15T02:00:09;13.63;;;7.07;;
70908;SDS011;58554;52.006;5.926;2023-04-15T02:02:37;11.05;;;6.47;;
70908;SDS011;58554;52.006;5.926;2023-04-15T02:05:04;10.07;;;6.43;;
70908;SDS011;58554;52.006;5.926;2023-04-15T02:07:32;11.40;;;6.80;;
70908;SDS011;58554;52.006;5.926;2023-04-15T02:09:58;11.05;;;6.70;;
70908;SDS011;58554;52.006;5.926;2023-04-15T02:12:25;10.50;;;6.03;;
70908;SDS011;58554;52.006;5.926;2023-04-15T02:14:51;10.95;;;6.40;;
70908;SDS011;58554;52.006;5.926;2023-04-15T02:17:20;10.30;;;6.07;;
70908;SDS011;58554;52.006;5.926;2023-04-15T02:19:46;11.73;;;6.32;;
70908;SDS011;58554;52.006;5.926;2023-04-15T02:22:13;11.23;;;6.70;;
70908;SDS011;58554;52.006;5.926;2023-04-15T02:24:39;10.23;;;6.00;;
70908;SDS011;58554;52.006;5.926;2023-04-15T02:27:06;9.55;;;6.28;;
70908;SDS011;58554;52.006;5.926;2023-04-15T02:29:32;10.77;;;6.03;;
70908;SDS011;58554;52.006;5.926;2023-04-15T02:31:59;11.32;;;6.63;;
70908;SDS011;58554;52.006;5.926;2023-04-15T02:34:28;10.00;;;6.20;;
70908;SDS011;58554;52.006;5.926;2023-04-15T02:36:54;9.95;;;6.28;;
70908;SDS011;58554;52.006;5.926;2023-04-15T02:39:21;11.43;;;6.53;;
70908;SDS011;58554;52.006;5.926;2023-04-15T02:41:48;11.10;;;6.73;;
70908;SDS011;58554;52.006;5.926;2023-04-15T02:44:15;13.93;;;7.73;;
70908;SDS011;58554;52.006;5.926;2023-04-15T02:46:41;11.97;;;6.63;;
70908;SDS011;58554;52.006;5.926;2023-04-15T02:49:08;10.97;;;6.90;;
70908;SDS011;58554;52.006;5.926;2023-04-15T02:51:37;11.43;;;6.88;;
70908;SDS011;58554;52.006;5.926;2023-04-15T02:54:03;12.35;;;6.57;;
70908;SDS011;58554;52.006;5.926;2023-04-15T02:56:30;11.70;;;7.13;;
70908;SDS011;58554;52.006;5.926;2023-04-15T02:58:56;13.50;;;7.63;;
70908;SDS011;58554;52.006;5.926;2023-04-15T03:01:23;12.90;;;6.83;;
70908;SDS011;58554;52.006;5.926;2023-04-15T03:03:49;14.35;;;7.53;;
70908;SDS011;58554;52.006;5.926;2023-04-15T03:06:15;11.57;;;7.40;;
70908;SDS011;58554;52.006;5.926;2023-04-15T03:08:44;13.23;;;6.93;;
70908;SDS011;58554;52.006;5.926;2023-04-15T03:11:11;12.00;;;7.47;;
70908;SDS011;58554;52.006;5.926;2023-04-15T03:13:39;12.87;;;7.33;;
70908;SDS011;58554;52.006;5.926;2023-04-15T03:16:06;13.67;;;7.87;;
70908;SDS011;58554;52.006;5.926;2023-04-15T03:18:33;14.55;;;8.07;;
70908;SDS011;58554;52.006;5.926;2023-04-15T03:20:59;12.70;;;7.80;;
70908;SDS011;58554;52.006;5.926;2023-04-15T03:23:26;13.20;;;8.07;;
70908;SDS011;58554;52.006;5.926;2023-04-15T03:25:55;16.67;;;8.20;;
70908;SDS011;58554;52.006;5.926;2023-04-15T03:28:22;14.17;;;7.63;;
70908;SDS011;58554;52.006;5.926;2023-04-15T03:30:48;15.23;;;8.20;;
70908;SDS011;58554;52.006;5.926;2023-04-15T03:33:15;15.10;;;8.13;;
70908;SDS011;58554;52.006;5.926;2023-04-15T03:35:41;12.83;;;8.10;;
70908;SDS011;58554;52.006;5.926;2023-04-15T03:38:08;14.50;;;8.60;;
70908;SDS011;58554;52.006;5.926;2023-04-15T03:40:34;14.43;;;8.20;;
70908;SDS011;58554;52.006;5.926;2023-04-15T03:43:03;14.30;;;7.93;;
70908;SDS011;58554;52.006;5.926;2023-04-15T03:45:30;15.67;;;8.20;;
70908;SDS011;58554;52.006;5.926;2023-04-15T03:47:56;14.15;;;8.55;;
70908;SDS011;58554;52.006;5.926;2023-04-15T03:50:23;17.10;;;8.73;;
70908;SDS011;58554;52.006;5.926;2023-04-15T03:52:49;13.57;;;7.95;;
70908;SDS011;58554;52.006;5.926;2023-04-15T03:55:16;14.03;;;8.60;;
70908;SDS011;58554;52.006;5.926;2023-04-15T03:57:42;14.52;;;8.18;;
70908;SDS011;58554;52.006;5.926;2023-04-15T04:00:12;13.55;;;8.43;;
70908;SDS011;58554;52.006;5.926;2023-04-15T04:02:38;17.40;;;8.23;;
70908;SDS011;58554;52.006;5.926;2023-04-15T04:05:05;16.63;;;9.02;;
70908;SDS011;58554;52.006;5.926;2023-04-15T04:07:32;13.65;;;8.73;;
70908;SDS011;58554;52.006;5.926;2023-04-15T04:09:59;15.07;;;8.73;;
70908;SDS011;58554;52.006;5.926;2023-04-15T04:12:25;15.30;;;8.70;;
70908;SDS011;58554;52.006;5.926;2023-04-15T04:14:52;15.80;;;8.63;;
70908;SDS011;58554;52.006;5.926;2023-04-15T04:17:21;15.33;;;9.20;;
70908;SDS011;58554;52.006;5.926;2023-04-15T04:19:47;14.63;;;8.53;;
70908;SDS011;58554;52.006;5.926;2023-04-15T04:22:14;17.90;;;9.05;;
70908;SDS011;58554;52.006;5.926;2023-04-15T04:24:40;14.60;;;8.63;;
70908;SDS011;58554;52.006;5.926;2023-04-15T04:27:07;15.60;;;8.73;;
70908;SDS011;58554;52.006;5.926;2023-04-15T04:29:34;14.93;;;8.40;;
70908;SDS011;58554;52.006;5.926;2023-04-15T04:32:00;15.18;;;9.13;;
70908;SDS011;58554;52.006;5.926;2023-04-15T04:34:29;14.70;;;8.97;;
70908;SDS011;58554;52.006;5.926;2023-04-15T04:36:55;15.53;;;8.90;;
70908;SDS011;58554;52.006;5.926;2023-04-15T04:39:22;14.87;;;9.33;;
70908;SDS011;58554;52.006;5.926;2023-04-15T04:41:48;16.10;;;9.30;;
70908;SDS011;58554;52.006;5.926;2023-04-15T04:44:15;15.90;;;8.90;;
70908;SDS011;58554;52.006;5.926;2023-04-15T04:46:41;16.67;;;9.38;;
70908;SDS011;58554;52.006;5.926;2023-04-15T04:49:08;17.17;;;9.50;;
70908;SDS011;58554;52.006;5.926;2023-04-15T04:51:37;16.47;;;9.30;;
70908;SDS011;58554;52.006;5.926;2023-04-15T04:54:03;16.35;;;9.43;;
70908;SDS011;58554;52.006;5.926;2023-04-15T04:56:30;17.83;;;9.17;;
70908;SDS011;58554;52.006;5.926;2023-04-15T04:58:56;17.77;;;9.53;;
70908;SDS011;58554;52.006;5.926;2023-04-15T05:01:23;18.20;;;9.47;;
70908;SDS011;58554;52.006;5.926;2023-04-15T05:03:49;17.70;;;9.57;;
70908;SDS011;58554;52.006;5.926;2023-04-15T05:06:16;16.90;;;9.53;;
70908;SDS011;58554;52.006;5.926;2023-04-15T05:08:45;16.65;;;8.88;;
70908;SDS011;58554;52.006;5.926;2023-04-15T05:11:11;17.97;;;9.47;;
70908;SDS011;58554;52.006;5.926;2023-04-15T05:13:38;17.20;;;9.68;;
70908;SDS011;58554;52.006;5.926;2023-04-15T05:16:04;16.23;;;9.03;;
70908;SDS011;58554;52.006;5.926;2023-04-15T05:18:31;14.52;;;9.05;;
70908;SDS011;58554;52.006;5.926;2023-04-15T05:20:58;18.10;;;8.73;;
70908;SDS011;58554;52.006;5.926;2023-04-15T05:23:27;18.25;;;9.48;;
70908;SDS011;58554;52.006;5.926;2023-04-15T05:25:56;18.20;;;9.37;;
70908;SDS011;58554;52.006;5.926;2023-04-15T05:28:23;16.30;;;8.97;;
70908;SDS011;58554;52.006;5.926;2023-04-15T05:30:49;16.42;;;9.48;;
70908;SDS011;58554;52.006;5.926;2023-04-15T05:33:16;15.33;;;8.97;;
70908;SDS011;58554;52.006;5.926;2023-04-15T05:35:42;15.00;;;9.45;;
70908;SDS011;58554;52.006;5.926;2023-04-15T05:38:08;17.17;;;9.00;;
70908;SDS011;58554;52.006;5.926;2023-04-15T05:40:35;15.93;;;8.75;;
70908;SDS011;58554;52.006;5.926;2023-04-15T05:43:04;19.00;;;9.50;;
70908;SDS011;58554;52.006;5.926;2023-04-15T05:45:31;17.10;;;9.45;;
70908;SDS011;58554;52.006;5.926;2023-04-15T05:47:57;18.43;;;9.23;;
70908;SDS011;58554;52.006;5.926;2023-04-15T05:50:24;15.75;;;9.00;;
70908;SDS011;58554;52.006;5.926;2023-04-15T05:52:50;17.50;;;9.87;;
70908;SDS011;58554;52.006;5.926;2023-04-15T05:55:16;18.90;;;10.37;;
70908;SDS011;58554;52.006;5.926;2023-04-15T05:57:43;19.90;;;10.43;;
70908;SDS011;58554;52.006;5.926;2023-04-15T06:00:13;17.90;;;9.70;;
70908;SDS011;58554;52.006;5.926;2023-04-15T06:02:40;19.02;;;10.07;;
70908;SDS011;58554;52.006;5.926;2023-04-15T06:05:07;17.53;;;9.90;;
70908;SDS011;58554;52.006;5.926;2023-04-15T06:07:34;16.77;;;9.97;;
70908;SDS011;58554;52.006;5.926;2023-04-15T06:10:01;16.70;;;8.67;;
70908;SDS011;58554;52.006;5.926;2023-04-15T06:12:27;18.52;;;9.35;;
70908;SDS011;58554;52.006;5.926;2023-04-15T06:14:54;17.10;;;9.07;;
70908;SDS011;58554;52.006;5.926;2023-04-15T06:17:23;17.90;;;9.75;;
70908;SDS011;58554;52.006;5.926;2023-04-15T06:19:50;15.43;;;9.20;;
70908;SDS011;58554;52.006;5.926;2023-04-15T06:22:16;15.60;;;9.15;;
70908;SDS011;58554;52.006;5.926;2023-04-15T06:24:43;17.63;;;10.10;;
70908;SDS011;58554;52.006;5.926;2023-04-15T06:27:09;16.58;;;9.27;;
70908;SDS011;58554;52.006;5.926;2023-04-15T06:29:36;17.10;;;9.02;;
70908;SDS011;58554;52.006;5.926;2023-04-15T06:32:02;16.87;;;9.40;;
70908;SDS011;58554;52.006;5.926;2023-04-15T06:34:31;17.35;;;8.85;;
70908;SDS011;58554;52.006;5.926;2023-04-15T06:36:57;15.30;;;8.63;;
70908;SDS011;58554;52.006;5.926;2023-04-15T06:39:24;16.37;;;9.03;;
70908;SDS011;58554;52.006;5.926;2023-04-15T06:41:51;14.98;;;8.77;;
70908;SDS011;58554;52.006;5.926;2023-04-15T06:44:17;15.53;;;9.27;;
70908;SDS011;58554;52.006;5.926;2023-04-15T06:46:44;15.63;;;8.73;;
70908;SDS011;58554;52.006;5.926;2023-04-15T06:49:10;15.70;;;9.47;;
70908;SDS011;58554;52.006;5.926;2023-04-15T06:51:41;16.02;;;9.15;;
70908;SDS011;58554;52.006;5.926;2023-04-15T06:54:08;18.03;;;9.90;;
70908;SDS011;58554;52.006;5.926;2023-04-15T06:56:34;22.20;;;10.27;;
70908;SDS011;58554;52.006;5.926;2023-04-15T06:59:01;19.05;;;9.70;;
70908;SDS011;58554;52.006;5.926;2023-04-15T07:01:27;19.00;;;10.20;;
70908;SDS011;58554;52.006;5.926;2023-04-15T07:03:54;18.67;;;9.80;;
70908;SDS011;58554;52.006;5.926;2023-04-15T07:06:20;15.33;;;9.53;;
70908;SDS011;58554;52.006;5.926;2023-04-15T07:08:49;18.40;;;9.93;;
70908;SDS011;58554;52.006;5.926;2023-04-15T07:11:16;18.00;;;9.93;;
70908;SDS011;58554;52.006;5.926;2023-04-15T07:13:42;16.77;;;9.53;;
70908;SDS011;58554;52.006;5.926;2023-04-15T07:16:09;16.77;;;9.23;;
70908;SDS011;58554;52.006;5.926;2023-04-15T07:18:35;16.40;;;8.60;;
70908;SDS011;58554;52.006;5.926;2023-04-15T07:21:02;16.83;;;9.25;;
70908;SDS011;58554;52.006;5.926;2023-04-15T07:23:29;17.42;;;8.95;;
70908;SDS011;58554;52.006;5.926;2023-04-15T07:25:58;19.63;;;9.40;;
70908;SDS011;58554;52.006;5.926;2023-04-15T07:28:25;18.00;;;9.00;;
70908;SDS011;58554;52.006;5.926;2023-04-15T07:30:51;15.90;;;8.87;;
70908;SDS011;58554;52.006;5.926;2023-04-15T07:33:18;17.35;;;8.65;;
70908;SDS011;58554;52.006;5.926;2023-04-15T07:35:44;17.10;;;9.32;;
70908;SDS011;58554;52.006;5.926;2023-04-15T07:38:11;16.70;;;8.50;;
70908;SDS011;58554;52.006;5.926;2023-04-15T07:40:37;17.27;;;9.25;;
70908;SDS011;58554;52.006;5.926;2023-04-15T07:43:06;17.90;;;9.23;;
70908;SDS011;58554;52.006;5.926;2023-04-15T07:45:33;15.63;;;8.70;;
70908;SDS011;58554;52.006;5.926;2023-04-15T07:48:00;16.97;;;8.50;;
70908;SDS011;58554;52.006;5.926;2023-04-15T07:50:27;16.40;;;9.23;;
70908;SDS011;58554;52.006;5.926;2023-04-15T07:52:53;16.85;;;9.25;;
70908;SDS011;58554;52.006;5.926;2023-04-15T07:55:20;16.13;;;8.43;;
70908;SDS011;58554;52.006;5.926;2023-04-15T07:57:47;14.48;;;8.02;;
70908;SDS011;58554;52.006;5.926;2023-04-15T08:00:17;16.80;;;8.97;;
70908;SDS011;58554;52.006;5.926;2023-04-15T08:02:44;13.43;;;7.70;;
70908;SDS011;58554;52.006;5.926;2023-04-15T08:05:11;11.60;;;7.55;;
70908;SDS011;58554;52.006;5.926;2023-04-15T08:07:38;14.07;;;7.77;;
70908;SDS011;58554;52.006;5.926;2023-04-15T08:10:06;11.83;;;7.70;;
70908;SDS011;58554;52.006;5.926;2023-04-15T08:12:33;12.60;;;7.03;;
70908;SDS011;58554;52.006;5.926;2023-04-15T08:15:00;12.43;;;7.53;;
70908;SDS011;58554;52.006;5.926;2023-04-15T08:17:29;12.70;;;6.60;;
70908;SDS011;58554;52.006;5.926;2023-04-15T08:19:56;9.97;;;5.70;;
70908;SDS011;58554;52.006;5.926;2023-04-15T08:22:22;10.13;;;5.80;;
70908;SDS011;58554;52.006;5.926;2023-04-15T08:24:49;9.27;;;5.67;;
70908;SDS011;58554;52.006;5.926;2023-04-15T08:27:15;9.57;;;5.85;;
70908;SDS011;58554;52.006;5.926;2023-04-15T08:29:42;9.02;;;5.40;;
70908;SDS011;58554;52.006;5.926;2023-04-15T08:32:08;10.60;;;5.60;;
70908;SDS011;58554;52.006;5.926;2023-04-15T08:34:37;9.87;;;6.00;;
70908;SDS011;58554;52.006;5.926;2023-04-15T08:37:04;10.80;;;5.40;;
70908;SDS011;58554;52.006;5.926;2023-04-15T08:39:30;9.30;;;5.63;;
70908;SDS011;58554;52.006;5.926;2023-04-15T08:42:00;10.03;;;5.53;;
70908;SDS011;58554;52.006;5.926;2023-04-15T08:44:28;8.63;;;5.43;;
70908;SDS011;58554;52.006;5.926;2023-04-15T08:46:58;9.97;;;5.83;;
70908;SDS011;58554;52.006;5.926;2023-04-15T08:49:27;8.57;;;5.43;;
70908;SDS011;58554;52.006;5.926;2023-04-15T08:51:57;9.30;;;5.00;;
70908;SDS011;58554;52.006;5.926;2023-04-15T08:54:25;8.77;;;5.32;;
70908;SDS011;58554;52.006;5.926;2023-04-15T08:56:52;8.40;;;5.10;;
70908;SDS011;58554;52.006;5.926;2023-04-15T08:59:19;9.43;;;4.65;;
70908;SDS011;58554;52.006;5.926;2023-04-15T09:01:46;9.07;;;5.30;;
70908;SDS011;58554;52.006;5.926;2023-04-15T09:04:14;10.27;;;4.87;;
70908;SDS011;58554;52.006;5.926;2023-04-15T09:06:42;7.68;;;4.60;;
70908;SDS011;58554;52.006;5.926;2023-04-15T09:09:11;8.77;;;4.60;;
70908;SDS011;58554;52.006;5.926;2023-04-15T09:11:38;8.15;;;4.65;;
70908;SDS011;58554;52.006;5.926;2023-04-15T09:14:04;9.13;;;4.90;;
70908;SDS011;58554;52.006;5.926;2023-04-15T09:16:31;7.60;;;4.63;;
70908;SDS011;58554;52.006;5.926;2023-04-15T09:19:21;7.23;;;4.53;;
70908;SDS011;58554;52.006;5.926;2023-04-15T09:21:50;8.50;;;5.32;;
70908;SDS011;58554;52.006;5.926;2023-04-15T09:24:21;8.23;;;4.90;;
70908;SDS011;58554;52.006;5.926;2023-04-15T09:26:51;8.30;;;5.00;;
70908;SDS011;58554;52.006;5.926;2023-04-15T09:29:19;8.30;;;5.37;;
70908;SDS011;58554;52.006;5.926;2023-04-15T09:31:50;9.50;;;5.13;;
70908;SDS011;58554;52.006;5.926;2023-04-15T09:34:16;8.40;;;5.10;;
70908;SDS011;58554;52.006;5.926;2023-04-15T09:36:51;10.52;;;5.00;;
70908;SDS011;58554;52.006;5.926;2023-04-15T09:39:21;8.20;;;4.80;;
70908;SDS011;58554;52.006;5.926;2023-04-15T09:42:03;9.02;;;5.50;;
70908;SDS011;58554;52.006;5.926;2023-04-15T09:44:30;6.97;;;4.38;;
70908;SDS011;58554;52.006;5.926;2023-04-15T09:46:57;8.07;;;4.50;;
70908;SDS011;58554;52.006;5.926;2023-04-15T09:49:23;7.57;;;4.40;;
70908;SDS011;58554;52.006;5.926;2023-04-15T09:51:50;7.63;;;4.82;;
70908;SDS011;58554;52.006;5.926;2023-04-15T09:54:17;8.70;;;4.40;;
70908;SDS011;58554;52.006;5.926;2023-04-15T09:56:47;7.53;;;4.37;;
70908;SDS011;58554;52.006;5.926;2023-04-15T09:59:13;7.68;;;4.75;;
70908;SDS011;58554;52.006;5.926;2023-04-15T10:01:40;8.60;;;5.00;;
70908;SDS011;58554;52.006;5.926;2023-04-15T10:04:07;8.20;;;4.90;;
70908;SDS011;58554;52.006;5.926;2023-04-15T10:06:35;7.88;;;5.07;;
70908;SDS011;58554;52.006;5.926;2023-04-15T10:09:02;8.40;;;4.97;;
70908;SDS011;58554;52.006;5.926;2023-04-15T10:11:33;8.27;;;4.72;;
70908;SDS011;58554;52.006;5.926;2023-04-15T10:14:00;8.77;;;4.57;;
70908;SDS011;58554;52.006;5.926;2023-04-15T10:16:28;7.07;;;4.57;;
70908;SDS011;58554;52.006;5.926;2023-04-15T10:19:00;7.63;;;4.47;;
70908;SDS011;58554;52.006;5.926;2023-04-15T10:21:29;7.25;;;4.35;;
70908;SDS011;58554;52.006;5.926;2023-04-15T10:23:56;8.33;;;4.77;;
70908;SDS011;58554;52.006;5.926;2023-04-15T10:26:23;9.17;;;4.80;;
70908;SDS011;58554;52.006;5.926;2023-04-15T10:28:54;7.60;;;4.55;;
70908;SDS011;58554;52.006;5.926;2023-04-15T10:31:24;7.93;;;4.70;;
70908;SDS011;58554;52.006;5.926;2023-04-15T10:33:51;7.35;;;4.35;;
70908;SDS011;58554;52.006;5.926;2023-04-15T10:36:18;7.28;;;4.35;;
70908;SDS011;58554;52.006;5.926;2023-04-15T10:38:46;8.48;;;4.40;;
70908;SDS011;58554;52.006;5.926;2023-04-15T10:41:16;6.93;;;4.45;;
70908;SDS011;58554;52.006;5.926;2023-04-15T10:43:46;8.27;;;4.60;;
70908;SDS011;58554;52.006;5.926;2023-04-15T10:46:20;6.97;;;4.27;;
70908;SDS011;58554;52.006;5.926;2023-04-15T10:48:49;7.73;;;4.30;;
70908;SDS011;58554;52.006;5.926;2023-04-15T10:51:28;6.38;;;3.78;;
70908;SDS011;58554;52.006;5.926;2023-04-15T10:53:56;7.00;;;4.00;;
70908;SDS011;58554;52.006;5.926;2023-04-15T10:56:27;7.13;;;4.27;;
70908;SDS011;58554;52.006;5.926;2023-04-15T10:58:54;6.35;;;3.90;;
70908;SDS011;58554;52.006;5.926;2023-04-15T11:01:26;7.27;;;4.40;;
70908;SDS011;58554;52.006;5.926;2023-04-15T11:07:32;6.40;;;4.20;;
70908;SDS011;58554;52.006;5.926;2023-04-15T11:10:03;7.97;;;4.33;;
70908;SDS011;58554;52.006;5.926;2023-04-15T11:13:17;7.07;;;3.97;;
70908;SDS011;58554;52.006;5.926;2023-04-15T11:15:57;6.90;;;4.13;;
70908;SDS011;58554;52.006;5.926;2023-04-15T11:18:29;6.18;;;3.80;;
70908;SDS011;58554;52.006;5.926;2023-04-15T11:21:02;7.07;;;3.73;;
70908;SDS011;58554;52.006;5.926;2023-04-15T11:23:37;4.97;;;3.13;;
70908;SDS011;58554;52.006;5.926;2023-04-15T11:26:07;5.43;;;3.38;;
70908;SDS011;58554;52.006;5.926;2023-04-15T11:28:36;5.07;;;3.20;;
70908;SDS011;58554;52.006;5.926;2023-04-15T11:31:05;4.67;;;3.00;;
70908;SDS011;58554;52.006;5.926;2023-04-15T11:33:37;10.20;;;3.72;;
70908;SDS011;58554;52.006;5.926;2023-04-15T11:36:10;5.13;;;3.13;;
70908;SDS011;58554;52.006;5.926;2023-04-15T11:38:36;4.60;;;2.90;;
70908;SDS011;58554;52.006;5.926;2023-04-15T11:41:08;4.23;;;2.80;;
70908;SDS011;58554;52.006;5.926;2023-04-15T11:43:35;3.77;;;2.70;;
70908;SDS011;58554;52.006;5.926;2023-04-15T11:46:02;4.80;;;2.77;;
70908;SDS011;58554;52.006;5.926;2023-04-15T11:48:29;4.87;;;2.90;;
70908;SDS011;58554;52.006;5.926;2023-04-15T11:51:00;4.70;;;2.50;;
70908;SDS011;58554;52.006;5.926;2023-04-15T11:53:35;5.07;;;2.93;;
70908;SDS011;58554;52.006;5.926;2023-04-15T11:56:05;5.00;;;2.60;;
70908;SDS011;58554;52.006;5.926;2023-04-15T11:58:34;4.60;;;2.77;;
70908;SDS011;58554;52.006;5.926;2023-04-15T12:01:02;5.53;;;2.65;;
70908;SDS011;58554;52.006;5.926;2023-04-15T12:03:35;3.90;;;2.70;;
70908;SDS011;58554;52.006;5.926;2023-04-15T12:06:10;3.75;;;2.63;;
70908;SDS011;58554;52.006;5.926;2023-04-15T12:11:38;3.27;;;2.13;;
70908;SDS011;58554;52.006;5.926;2023-04-15T12:14:08;3.87;;;2.60;;
70908;SDS011;58554;52.006;5.926;2023-04-15T12:16:39;4.05;;;2.22;;
70908;SDS011;58554;52.006;5.926;2023-04-15T12:19:09;3.77;;;2.70;;
70908;SDS011;58554;52.006;5.926;2023-04-15T12:21:40;4.64;;;2.74;;
70908;SDS011;58554;52.006;5.926;2023-04-15T12:24:10;3.83;;;2.13;;
70908;SDS011;58554;52.006;5.926;2023-04-15T12:26:42;3.53;;;2.28;;
70908;SDS011;58554;52.006;5.926;2023-04-15T12:29:12;3.33;;;2.07;;
70908;SDS011;58554;52.006;5.926;2023-04-15T12:31:46;5.68;;;2.30;;
70908;SDS011;58554;52.006;5.926;2023-04-15T12:34:15;4.03;;;2.60;;
70908;SDS011;58554;52.006;5.926;2023-04-15T12:36:46;4.73;;;2.30;;
70908;SDS011;58554;52.006;5.926;2023-04-15T12:39:13;3.60;;;2.30;;
70908;SDS011;58554;52.006;5.926;2023-04-15T12:41:39;5.03;;;2.63;;
70908;SDS011;58554;52.006;5.926;2023-04-15T12:44:06;3.55;;;2.38;;
70908;SDS011;58554;52.006;5.926;2023-04-15T12:46:33;4.50;;;2.60;;
70908;SDS011;58554;52.006;5.926;2023-04-15T12:48:59;4.78;;;3.00;;
70908;SDS011;58554;52.006;5.926;2023-04-15T12:51:26;3.93;;;2.50;;
70908;SDS011;58554;52.006;5.926;2023-04-15T12:53:55;3.50;;;2.30;;
70908;SDS011;58554;52.006;5.926;2023-04-15T12:56:22;3.80;;;2.28;;
70908;SDS011;58554;52.006;5.926;2023-04-15T12:58:49;3.53;;;2.27;;
70908;SDS011;58554;52.006;5.926;2023-04-15T13:01:15;4.43;;;2.30;;
70908;SDS011;58554;52.006;5.926;2023-04-15T13:03:42;6.05;;;2.50;;
70908;SDS011;58554;52.006;5.926;2023-04-15T13:06:08;3.07;;;2.20;;
70908;SDS011;58554;52.006;5.926;2023-04-15T13:08:35;4.00;;;2.23;;
70908;SDS011;58554;52.006;5.926;2023-04-15T13:11:05;3.60;;;2.23;;
70908;SDS011;58554;52.006;5.926;2023-04-15T13:13:31;4.75;;;1.98;;
70908;SDS011;58554;52.006;5.926;2023-04-15T13:15:58;4.20;;;1.87;;
70908;SDS011;58554;52.006;5.926;2023-04-15T13:18:25;4.50;;;2.10;;
70908;SDS011;58554;52.006;5.926;2023-04-15T13:20:51;2.73;;;1.97;;
70908;SDS011;58554;52.006;5.926;2023-04-15T13:23:19;3.40;;;1.87;;
70908;SDS011;58554;52.006;5.926;2023-04-15T13:25:46;3.50;;;1.60;;
70908;SDS011;58554;52.006;5.926;2023-04-15T13:28:15;4.07;;;1.77;;
70908;SDS011;58554;52.006;5.926;2023-04-15T13:30:41;3.07;;;1.50;;
70908;SDS011;58554;52.006;5.926;2023-04-15T13:33:08;3.00;;;1.53;;
70908;SDS011;58554;52.006;5.926;2023-04-15T13:35:34;4.65;;;1.80;;
70908;SDS011;58554;52.006;5.926;2023-04-15T13:38:01;3.37;;;1.70;;
70908;SDS011;58554;52.006;5.926;2023-04-15T13:40:27;2.60;;;1.70;;
70908;SDS011;58554;52.006;5.926;2023-04-15T13:42:54;3.72;;;1.55;;
70908;SDS011;58554;52.006;5.926;2023-04-15T13:45:23;3.70;;;1.80;;
70908;SDS011;58554;52.006;5.926;2023-04-15T13:47:49;2.80;;;1.90;;
70908;SDS011;58554;52.006;5.926;2023-04-15T13:50:16;2.92;;;1.70;;
70908;SDS011;58554;52.006;5.926;2023-04-15T13:52:42;5.20;;;2.10;;
70908;SDS011;58554;52.006;5.926;2023-04-15T13:55:09;2.60;;;1.58;;
70908;SDS011;58554;52.006;5.926;2023-04-15T13:57:35;3.20;;;2.00;;
70908;SDS011;58554;52.006;5.926;2023-04-15T14:00:03;3.00;;;1.80;;
70908;SDS011;58554;52.006;5.926;2023-04-15T14:02:34;3.20;;;1.90;;
70908;SDS011;58554;52.006;5.926;2023-04-15T14:05:00;4.50;;;2.00;;
70908;SDS011;58554;52.006;5.926;2023-04-15T14:07:27;3.50;;;1.83;;
70908;SDS011;58554;52.006;5.926;2023-04-15T14:09:54;4.22;;;1.98;;
70908;SDS011;58554;52.006;5.926;2023-04-15T14:12:21;3.30;;;2.10;;
70908;SDS011;58554;52.006;5.926;2023-04-15T14:14:48;4.70;;;1.70;;
70908;SDS011;58554;52.006;5.926;2023-04-15T14:17:14;3.30;;;1.88;;
70908;SDS011;58554;52.006;5.926;2023-04-15T14:19:43;3.03;;;1.90;;
70908;SDS011;58554;52.006;5.926;2023-04-15T14:22:10;3.43;;;2.00;;
70908;SDS011;58554;52.006;5.926;2023-04-15T14:24:36;3.08;;;2.00;;
70908;SDS011;58554;52.006;5.926;2023-04-15T14:27:03;3.17;;;1.83;;
70908;SDS011;58554;52.006;5.926;2023-04-15T14:29:29;3.72;;;2.10;;
70908;SDS011;58554;52.006;5.926;2023-04-15T14:31:56;4.97;;;2.20;;
70908;SDS011;58554;52.006;5.926;2023-04-15T14:34:22;4.00;;;2.10;;
70908;SDS011;58554;52.006;5.926;2023-04-15T14:36:52;3.80;;;2.20;;
70908;SDS011;58554;52.006;5.926;2023-04-15T14:39:18;2.72;;;2.10;;
70908;SDS011;58554;52.006;5.926;2023-04-15T14:41:45;4.23;;;2.43;;
70908;SDS011;58554;52.006;5.926;2023-04-15T14:44:12;4.18;;;2.40;;
70908;SDS011;58554;52.006;5.926;2023-04-15T14:46:38;4.07;;;2.27;;
70908;SDS011;58554;52.006;5.926;2023-04-15T14:49:05;4.15;;;2.50;;
70908;SDS011;58554;52.006;5.926;2023-04-15T14:51:32;3.97;;;2.20;;